sensor_id;sensor_type;location;lat;lon;timestamp;pressure;altitude;pressure_sealevel;temperature;humidity
69027;BME280;56080;47.594;19.116;2023-06-22T00:00:11;100432;;;22.46;89.86
69027;BME280;56080;47.594;19.116;2023-06-22T00:10:10;100469;;;22.67;88.68
69027;BME280;56080;47.594;19.116;2023-06-22T00:20:11;100446;;;22.72;89.27
69027;BME280;56080;47.594;19.116;2023-06-22T00:30:14;100435;;;22.92;88.95
69027;BME280;56080;47.594;19.116;2023-06-22T00:40:17;100427;;;22.75;90.06
69027;BME280;56080;47.594;19.116;2023-06-22T00:50:19;100438;;;22.70;90.18
69027;BME280;56080;47.594;19.116;2023-06-22T01:00:20;100454;;;22.68;91.26
69027;BME280;56080;47.594;19.116;2023-06-22T01:20:22;100452;;;22.16;95.13
69027;BME280;56080;47.594;19.116;2023-06-22T01:30:25;100450;;;22.25;93.91
69027;BME280;56080;47.594;19.116;2023-06-22T01:40:26;100458;;;22.08;93.78
69027;BME280;56080;47.594;19.116;2023-06-22T01:50:28;100455;;;21.96;94.37
69027;BME280;56080;47.594;19.116;2023-06-22T02:00:31;100451;;;22.00;94.13
69027;BME280;56080;47.594;19.116;2023-06-22T02:10:31;100464;;;21.98;94.49
69027;BME280;56080;47.594;19.116;2023-06-22T02:20:35;100467;;;22.17;93.62
69027;BME280;56080;47.594;19.116;2023-06-22T02:30:34;100461;;;21.97;94.83
69027;BME280;56080;47.594;19.116;2023-06-22T02:40:36;100472;;;21.77;96.18
69027;BME280;56080;47.594;19.116;2023-06-22T02:50:38;100485;;;21.83;96.58
69027;BME280;56080;47.594;19.116;2023-06-22T03:00:40;100478;;;21.77;97.42
69027;BME280;56080;47.594;19.116;2023-06-22T03:10:41;100494;;;21.91;97.75
69027;BME280;56080;47.594;19.116;2023-06-22T03:20:43;100488;;;22.00;96.05
69027;BME280;56080;47.594;19.116;2023-06-22T03:30:45;100468;;;21.68;97.16
69027;BME280;56080;47.594;19.116;2023-06-22T03:40:47;100476;;;21.82;96.99
69027;BME280;56080;47.594;19.116;2023-06-22T03:50:49;100480;;;21.74;96.58
69027;BME280;56080;47.594;19.116;2023-06-22T04:00:51;100479;;;21.89;95.96
69027;BME280;56080;47.594;19.116;2023-06-22T04:10:52;100496;;;22.02;96.24
69027;BME280;56080;47.594;19.116;2023-06-22T04:20:54;100506;;;22.23;94.30
69027;BME280;56080;47.594;19.116;2023-06-22T04:30:58;100504;;;22.24;95.14
69027;BME280;56080;47.594;19.116;2023-06-22T04:40:58;100507;;;22.31;95.31
69027;BME280;56080;47.594;19.116;2023-06-22T04:51:03;100511;;;22.67;93.20
69027;BME280;56080;47.594;19.116;2023-06-22T05:01:03;100505;;;24.52;83.20
69027;BME280;56080;47.594;19.116;2023-06-22T05:11:06;100506;;;25.97;73.45
69027;BME280;56080;47.594;19.116;2023-06-22T05:21:07;100527;;;27.18;69.14
69027;BME280;56080;47.594;19.116;2023-06-22T05:31:09;100532;;;28.07;64.13
69027;BME280;56080;47.594;19.116;2023-06-22T05:41:13;100535;;;28.56;61.48
69027;BME280;56080;47.594;19.116;2023-06-22T05:51:15;100554;;;29.77;57.07
69027;BME280;56080;47.594;19.116;2023-06-22T06:01:18;100558;;;34.74;41.49
69027;BME280;56080;47.594;19.116;2023-06-22T06:11:21;100563;;;32.64;45.05
69027;BME280;56080;47.594;19.116;2023-06-22T06:21:24;100560;;;32.74;44.82
69027;BME280;56080;47.594;19.116;2023-06-22T06:31:28;100560;;;33.75;41.71
69027;BME280;56080;47.594;19.116;2023-06-22T06:41:30;100553;;;34.66;40.48
69027;BME280;56080;47.594;19.116;2023-06-22T06:51:33;100554;;;33.86;38.12
69027;BME280;56080;47.594;19.116;2023-06-22T07:01:36;100545;;;35.57;35.68
69027;BME280;56080;47.594;19.116;2023-06-22T07:11:39;100543;;;35.28;36.66
69027;BME280;56080;47.594;19.116;2023-06-22T07:21:43;100532;;;35.53;35.16
69027;BME280;56080;47.594;19.116;2023-06-22T07:31:46;100536;;;35.07;35.65
69027;BME280;56080;47.594;19.116;2023-06-22T07:41:49;100541;;;35.41;36.20
69027;BME280;56080;47.594;19.116;2023-06-22T07:51:52;100534;;;36.46;33.91
69027;BME280;56080;47.594;19.116;2023-06-22T08:01:55;100524;;;34.89;35.95
69027;BME280;56080;47.594;19.116;2023-06-22T08:11:58;100508;;;35.94;33.71
69027;BME280;56080;47.594;19.116;2023-06-22T08:22:01;100499;;;35.75;32.58
69027;BME280;56080;47.594;19.116;2023-06-22T08:32:05;100499;;;36.19;32.25
69027;BME280;56080;47.594;19.116;2023-06-22T08:42:07;100497;;;35.60;32.69
69027;BME280;56080;47.594;19.116;2023-06-22T08:52:10;100483;;;35.33;31.95
69027;BME280;56080;47.594;19.116;2023-06-22T09:02:13;100479;;;34.87;34.55
69027;BME280;56080;47.594;19.116;2023-06-22T09:12:17;100472;;;34.24;36.29
69027;BME280;56080;47.594;19.116;2023-06-22T09:22:19;100466;;;34.16;35.54
69027;BME280;56080;47.594;19.116;2023-06-22T09:32:22;100460;;;34.00;36.33
69027;BME280;56080;47.594;19.116;2023-06-22T09:42:25;100449;;;33.89;36.24
69027;BME280;56080;47.594;19.116;2023-06-22T09:52:37;100454;;;33.29;38.12
69027;BME280;56080;47.594;19.116;2023-06-22T10:02:31;100447;;;32.76;38.56
69027;BME280;56080;47.594;19.116;2023-06-22T10:12:33;100456;;;32.78;39.19
69027;BME280;56080;47.594;19.116;2023-06-22T10:22:37;100448;;;31.53;40.41
69027;BME280;56080;47.594;19.116;2023-06-22T10:32:39;100433;;;31.62;42.26
69027;BME280;56080;47.594;19.116;2023-06-22T10:42:42;100435;;;31.82;42.19
69027;BME280;56080;47.594;19.116;2023-06-22T10:52:44;100423;;;31.49;42.48
69027;BME280;56080;47.594;19.116;2023-06-22T11:02:47;100420;;;31.61;42.31
69027;BME280;56080;47.594;19.116;2023-06-22T11:12:50;100424;;;31.31;42.70
69027;BME280;56080;47.594;19.116;2023-06-22T11:22:52;100416;;;31.24;43.45
69027;BME280;56080;47.594;19.116;2023-06-22T11:32:56;100412;;;31.42;43.31
69027;BME280;56080;47.594;19.116;2023-06-22T11:42:59;100409;;;31.02;43.90
69027;BME280;56080;47.594;19.116;2023-06-22T11:53:00;100396;;;31.02;43.59
69027;BME280;56080;47.594;19.116;2023-06-22T12:03:03;100394;;;31.08;43.69
69027;BME280;56080;47.594;19.116;2023-06-22T12:13:05;100384;;;31.04;43.68
69027;BME280;56080;47.594;19.116;2023-06-22T12:23:08;100368;;;31.19;43.77
69027;BME280;56080;47.594;19.116;2023-06-22T12:33:11;100351;;;31.12;43.99
69027;BME280;56080;47.594;19.116;2023-06-22T12:43:14;100351;;;31.14;44.26
69027;BME280;56080;47.594;19.116;2023-06-22T12:53:16;100344;;;31.22;43.98
69027;BME280;56080;47.594;19.116;2023-06-22T13:03:19;100346;;;31.54;43.16
69027;BME280;56080;47.594;19.116;2023-06-22T13:13:21;100329;;;31.64;42.85
69027;BME280;56080;47.594;19.116;2023-06-22T13:23:23;100318;;;31.54;43.17
69027;BME280;56080;47.594;19.116;2023-06-22T13:33:26;100309;;;31.07;45.10
69027;BME280;56080;47.594;19.116;2023-06-22T13:43:28;100307;;;31.32;44.12
69027;BME280;56080;47.594;19.116;2023-06-22T13:53:31;100294;;;31.51;44.23
69027;BME280;56080;47.594;19.116;2023-06-22T14:03:34;100290;;;31.65;43.83
69027;BME280;56080;47.594;19.116;2023-06-22T14:13:36;100281;;;31.73;43.02
69027;BME280;56080;47.594;19.116;2023-06-22T14:23:39;100266;;;31.72;44.01
69027;BME280;56080;47.594;19.116;2023-06-22T14:33:45;100257;;;31.47;44.04
69027;BME280;56080;47.594;19.116;2023-06-22T14:43:45;100255;;;31.64;43.59
69027;BME280;56080;47.594;19.116;2023-06-22T14:53:47;100253;;;31.50;43.90
69027;BME280;56080;47.594;19.116;2023-06-22T15:03:50;100244;;;31.66;43.16
69027;BME280;56080;47.594;19.116;2023-06-22T15:13:52;100223;;;32.14;42.90
69027;BME280;56080;47.594;19.116;2023-06-22T15:23:55;100204;;;36.86;32.86
69027;BME280;56080;47.594;19.116;2023-06-22T15:33:58;100205;;;36.75;32.85
69027;BME280;56080;47.594;19.116;2023-06-22T15:44:01;100206;;;37.44;32.51
69027;BME280;56080;47.594;19.116;2023-06-22T15:54:03;100212;;;36.29;34.11
69027;BME280;56080;47.594;19.116;2023-06-22T16:04:06;100217;;;35.02;37.34
69027;BME280;56080;47.594;19.116;2023-06-22T16:14:09;100200;;;33.71;39.37
69027;BME280;56080;47.594;19.116;2023-06-22T16:24:12;100199;;;35.75;36.85
69027;BME280;56080;47.594;19.116;2023-06-22T16:34:15;100211;;;35.49;37.97
69027;BME280;56080;47.594;19.116;2023-06-22T16:44:19;100198;;;35.11;38.23
69027;BME280;56080;47.594;19.116;2023-06-22T16:54:21;100183;;;34.74;38.81
69027;BME280;56080;47.594;19.116;2023-06-22T17:04:24;100187;;;34.87;38.71
69027;BME280;56080;47.594;19.116;2023-06-22T17:14:26;100185;;;34.68;39.36
69027;BME280;56080;47.594;19.116;2023-06-22T17:24:29;100178;;;34.83;38.39
69027;BME280;56080;47.594;19.116;2023-06-22T17:34:32;100166;;;34.97;38.32
69027;BME280;56080;47.594;19.116;2023-06-22T17:44:36;100159;;;34.24;39.77
69027;BME280;56080;47.594;19.116;2023-06-22T17:54:50;100166;;;34.27;39.99
69027;BME280;56080;47.594;19.116;2023-06-22T18:04:40;100153;;;34.04;41.26
69027;BME280;56080;47.594;19.116;2023-06-22T18:14:43;100160;;;34.15;41.47
69027;BME280;56080;47.594;19.116;2023-06-22T18:24:47;100163;;;33.55;44.34
69027;BME280;56080;47.594;19.116;2023-06-22T18:34:51;100162;;;33.36;44.74
69027;BME280;56080;47.594;19.116;2023-06-22T18:44:52;100170;;;33.38;44.40
69027;BME280;56080;47.594;19.116;2023-06-22T18:54:56;100185;;;33.43;44.74
69027;BME280;56080;47.594;19.116;2023-06-22T19:15:00;100208;;;32.76;46.59
69027;BME280;56080;47.594;19.116;2023-06-22T19:25:02;100223;;;32.34;49.00
69027;BME280;56080;47.594;19.116;2023-06-22T19:35:05;100229;;;31.74;51.44
69027;BME280;56080;47.594;19.116;2023-06-22T19:45:07;100236;;;31.18;53.07
69027;BME280;56080;47.594;19.116;2023-06-22T19:55:13;100238;;;29.53;55.69
69027;BME280;56080;47.594;19.116;2023-06-22T20:05:12;100233;;;28.87;61.41
69027;BME280;56080;47.594;19.116;2023-06-22T20:25:18;100241;;;28.43;63.94
69027;BME280;56080;47.594;19.116;2023-06-22T20:35:20;100239;;;28.21;65.75
69027;BME280;56080;47.594;19.116;2023-06-22T20:45:21;100244;;;28.05;66.30
69027;BME280;56080;47.594;19.116;2023-06-22T20:55:24;100230;;;27.91;67.12
69027;BME280;56080;47.594;19.116;2023-06-22T21:05:26;100214;;;27.74;67.99
69027;BME280;56080;47.594;19.116;2023-06-22T21:15:28;100223;;;27.43;69.28
69027;BME280;56080;47.594;19.116;2023-06-22T21:25:31;100232;;;27.50;69.02
69027;BME280;56080;47.594;19.116;2023-06-22T21:35:33;100230;;;27.36;70.10
69027;BME280;56080;47.594;19.116;2023-06-22T21:45:35;100228;;;27.25;69.97
69027;BME280;56080;47.594;19.116;2023-06-22T21:55:37;100210;;;31.60;53.08
69027;BME280;56080;47.594;19.116;2023-06-22T22:05:39;100208;;;31.80;51.49
69027;BME280;56080;47.594;19.116;2023-06-22T22:15:42;100198;;;31.05;54.10
69027;BME280;56080;47.594;19.116;2023-06-22T22:25:44;100199;;;27.75;66.13
69027;BME280;56080;47.594;19.116;2023-06-22T22:35:47;100186;;;27.06;70.03
69027;BME280;56080;47.594;19.116;2023-06-22T22:45:49;100190;;;28.63;62.45
69027;BME280;56080;47.594;19.116;2023-06-22T22:55:51;100163;;;26.98;70.14
69027;BME280;56080;47.594;19.116;2023-06-22T23:05:53;100125;;;26.19;74.47
69027;BME280;56080;47.594;19.116;2023-06-22T23:15:56;100113;;;26.21;74.69
69027;BME280;56080;47.594;19.116;2023-06-22T23:25:58;100116;;;26.12;75.51
69027;BME280;56080;47.594;19.116;2023-06-22T23:36:00;100114;;;26.41;75.89
69027;BME280;56080;47.594;19.116;2023-06-22T23:46:02;100105;;;29.14;61.68
69027;BME280;56080;47.594;19.116;2023-06-22T23:56:04;100089;;;29.05;61.23
